Aeroporto :
LOGIN :

Iscrizione | Disclaimer

   EN    FR    IT 

 










Sommario :    VFR   VFR Marginale   IFR   IFR Intensivo   IFR Molto Intensivo
Visibilità : 
Base nubi : 
>= 8 km
>= 3000ft
5 / 8 km
1000 / 3000 ft
1500m / 5 km
500 / 1000 ft
800 / 1500m
200 / 500 ft
< 800m
< 200 ft
Simboli :   Temporali  Nebbia  Neve Forte  Precipitazioni Forti  Vento > 20 kt
SIGMETs :   Varie  Temporali  Ghiacco  Turbolenza  Onda orograficha  Ceneri Vulcaniche






- Altitudine del aeroporto : 1260 ft
- Codice IATA : LDE


LFBT - Tarbes / Ossun

ULTIMO METAR :
  • 030000Z AUTO 17005KT CAVOK 17/15 Q1013 NOSIG

METARs OBSOLETI :
  • 022330Z AUTO 17003KT 160V220 CAVOK 16/14 Q1013 NOSIG
  • 022300Z AUTO 17004KT CAVOK 17/15 Q1014 NOSIG
  • 022230Z AUTO 17004KT CAVOK 17/15 Q1014 NOSIG
  • 022200Z AUTO 19004KT CAVOK 16/15 Q1014 NOSIG
  • 022130Z AUTO 19005KT CAVOK 16/14 Q1014 NOSIG

TAF TAF LFBT
Valido dal 03 a 00 ore il 04 a 00 ore UTC


022300Z 0300/0324 23005KT CAVOK
TEMPO 0303/0308 3000 BR BKN006
BECMG 0310/0312 SCT050TCU BKN070
TEMPO 0312/0320 4000 SHRA BKN013 BKN030CB
PROB30
TEMPO 0312/0319 30020G35KT 2000 TSRA
PROB30
TEMPO 0312/0314 1200 TSGR



MetMap, La meteo Aeronautica in un colpo d'occhio ! - Copyright ORBIFLY Dicembre 2007 - Disclaimer

ORBIFLY MET'MAP TEAM :

Programmazione e sviluppo : Alexandra Zaïnal
Concezione : Baudouin d'Aumeries
Aiuto per la programmazione : Marc-Olivier Méhu
Supporto tecnico e logistico : Manuel Goepfert
Aiuto per la traduzione : Arnaldo La Scala

Contatto : metmap@orbifly.com




FONTI E CREDITI :

   NOAA